sensor_id;sensor_type;location;lat;lon;timestamp;P1;durP1;ratioP1;P2;durP2;ratioP2
55417;SDS011;41287;47.554;7.844;2022-09-20T00:00:03;0.60;;;0.30;;
55417;SDS011;41287;47.554;7.844;2022-09-20T00:02:30;0.50;;;0.40;;
55417;SDS011;41287;47.554;7.844;2022-09-20T00:04:55;0.40;;;0.40;;
55417;SDS011;41287;47.554;7.844;2022-09-20T00:07:20;0.30;;;0.30;;
55417;SDS011;41287;47.554;7.844;2022-09-20T00:09:46;1.05;;;0.63;;
55417;SDS011;41287;47.554;7.844;2022-09-20T00:12:11;0.50;;;0.35;;
55417;SDS011;41287;47.554;7.844;2022-09-20T00:14:37;0.75;;;0.40;;
55417;SDS011;41287;47.554;7.844;2022-09-20T00:17:02;0.30;;;0.30;;
55417;SDS011;41287;47.554;7.844;2022-09-20T00:19:27;0.40;;;0.30;;
55417;SDS011;41287;47.554;7.844;2022-09-20T00:21:53;0.43;;;0.30;;
55417;SDS011;41287;47.554;7.844;2022-09-20T00:24:18;0.70;;;0.30;;
55417;SDS011;41287;47.554;7.844;2022-09-20T00:26:45;1.38;;;0.40;;
55417;SDS011;41287;47.554;7.844;2022-09-20T00:29:10;0.30;;;0.30;;
55417;SDS011;41287;47.554;7.844;2022-09-20T00:31:37;0.47;;;0.38;;
55417;SDS011;41287;47.554;7.844;2022-09-20T00:34:05;0.50;;;0.40;;
55417;SDS011;41287;47.554;7.844;2022-09-20T00:36:49;0.30;;;0.30;;
55417;SDS011;41287;47.554;7.844;2022-09-20T00:39:14;0.88;;;0.40;;
55417;SDS011;41287;47.554;7.844;2022-09-20T00:41:42;1.05;;;0.40;;
55417;SDS011;41287;47.554;7.844;2022-09-20T00:47:18;0.70;;;0.40;;
55417;SDS011;41287;47.554;7.844;2022-09-20T00:49:53;0.60;;;0.50;;
55417;SDS011;41287;47.554;7.844;2022-09-20T00:52:23;1.75;;;0.40;;
55417;SDS011;41287;47.554;7.844;2022-09-20T00:54:50;0.68;;;0.32;;
55417;SDS011;41287;47.554;7.844;2022-09-20T00:57:17;0.38;;;0.38;;
55417;SDS011;41287;47.554;7.844;2022-09-20T00:59:42;0.40;;;0.30;;
55417;SDS011;41287;47.554;7.844;2022-09-20T01:02:18;2.15;;;0.60;;
55417;SDS011;41287;47.554;7.844;2022-09-20T01:07:15;0.60;;;0.30;;
55417;SDS011;41287;47.554;7.844;2022-09-20T01:09:43;0.50;;;0.40;;
55417;SDS011;41287;47.554;7.844;2022-09-20T01:12:12;0.88;;;0.40;;
55417;SDS011;41287;47.554;7.844;2022-09-20T01:14:41;0.80;;;0.30;;
55417;SDS011;41287;47.554;7.844;2022-09-20T01:17:09;0.35;;;0.30;;
55417;SDS011;41287;47.554;7.844;2022-09-20T01:22:02;0.88;;;0.40;;
55417;SDS011;41287;47.554;7.844;2022-09-20T01:24:39;0.95;;;0.50;;
55417;SDS011;41287;47.554;7.844;2022-09-20T01:27:37;0.50;;;0.38;;
55417;SDS011;41287;47.554;7.844;2022-09-20T01:30:09;0.85;;;0.40;;
55417;SDS011;41287;47.554;7.844;2022-09-20T01:35:27;0.73;;;0.60;;
55417;SDS011;41287;47.554;7.844;2022-09-20T01:43:13;0.77;;;0.38;;
55417;SDS011;41287;47.554;7.844;2022-09-20T01:45:47;0.93;;;0.40;;
55417;SDS011;41287;47.554;7.844;2022-09-20T01:49:01;0.73;;;0.40;;
55417;SDS011;41287;47.554;7.844;2022-09-20T01:54:14;0.73;;;0.40;;
55417;SDS011;41287;47.554;7.844;2022-09-20T02:02:06;1.48;;;0.38;;
55417;SDS011;41287;47.554;7.844;2022-09-20T02:19:24;0.52;;;0.38;;
55417;SDS011;41287;47.554;7.844;2022-09-20T02:47:08;0.40;;;0.30;;
55417;SDS011;41287;47.554;7.844;2022-09-20T03:00:43;0.30;;;0.30;;
55417;SDS011;41287;47.554;7.844;2022-09-20T03:04:19;0.35;;;0.30;;
55417;SDS011;41287;47.554;7.844;2022-09-20T03:09:21;0.30;;;0.30;;
55417;SDS011;41287;47.554;7.844;2022-09-20T03:14:29;1.05;;;0.25;;
55417;SDS011;41287;47.554;7.844;2022-09-20T03:27:48;0.32;;;0.30;;
55417;SDS011;41287;47.554;7.844;2022-09-20T03:41:39;0.30;;;0.30;;
55417;SDS011;41287;47.554;7.844;2022-09-20T03:47:21;0.68;;;0.30;;
55417;SDS011;41287;47.554;7.844;2022-09-20T04:00:44;0.65;;;0.30;;
55417;SDS011;41287;47.554;7.844;2022-09-20T04:03:47;0.55;;;0.30;;
55417;SDS011;41287;47.554;7.844;2022-09-20T04:15:04;1.85;;;0.35;;
55417;SDS011;41287;47.554;7.844;2022-09-20T04:20:41;3.10;;;0.43;;
55417;SDS011;41287;47.554;7.844;2022-09-20T04:23:20;1.10;;;0.60;;
55417;SDS011;41287;47.554;7.844;2022-09-20T04:25:48;0.98;;;0.47;;
55417;SDS011;41287;47.554;7.844;2022-09-20T04:28:23;0.60;;;0.40;;
55417;SDS011;41287;47.554;7.844;2022-09-20T04:30:53;0.95;;;0.35;;
55417;SDS011;41287;47.554;7.844;2022-09-20T04:33:25;2.50;;;0.70;;
55417;SDS011;41287;47.554;7.844;2022-09-20T04:36:56;2.83;;;0.75;;
55417;SDS011;41287;47.554;7.844;2022-09-20T04:42:32;2.92;;;1.20;;
55417;SDS011;41287;47.554;7.844;2022-09-20T04:45:16;3.17;;;1.25;;
55417;SDS011;41287;47.554;7.844;2022-09-20T04:51:13;3.08;;;1.20;;
55417;SDS011;41287;47.554;7.844;2022-09-20T04:56:54;3.50;;;1.80;;
55417;SDS011;41287;47.554;7.844;2022-09-20T05:02:32;4.05;;;1.30;;
55417;SDS011;41287;47.554;7.844;2022-09-20T05:10:25;2.50;;;1.08;;
55417;SDS011;41287;47.554;7.844;2022-09-20T05:12:56;4.30;;;0.95;;
55417;SDS011;41287;47.554;7.844;2022-09-20T05:15:56;4.57;;;1.25;;
55417;SDS011;41287;47.554;7.844;2022-09-20T05:30:00;2.45;;;1.23;;
55417;SDS011;41287;47.554;7.844;2022-09-20T05:32:41;5.38;;;1.55;;
55417;SDS011;41287;47.554;7.844;2022-09-20T05:35:15;3.72;;;1.10;;
55417;SDS011;41287;47.554;7.844;2022-09-20T05:38:00;6.13;;;1.45;;
55417;SDS011;41287;47.554;7.844;2022-09-20T05:43:28;7.35;;;1.45;;
55417;SDS011;41287;47.554;7.844;2022-09-20T05:51:50;5.88;;;1.17;;
55417;SDS011;41287;47.554;7.844;2022-09-20T06:00:32;3.50;;;1.10;;
55417;SDS011;41287;47.554;7.844;2022-09-20T06:05:44;3.63;;;1.30;;
55417;SDS011;41287;47.554;7.844;2022-09-20T06:23:02;4.60;;;1.70;;
55417;SDS011;41287;47.554;7.844;2022-09-20T06:25:43;4.40;;;1.35;;
55417;SDS011;41287;47.554;7.844;2022-09-20T06:30:50;8.45;;;1.90;;
55417;SDS011;41287;47.554;7.844;2022-09-20T06:33:21;5.40;;;1.98;;
55417;SDS011;41287;47.554;7.844;2022-09-20T06:39:01;4.28;;;2.03;;
55417;SDS011;41287;47.554;7.844;2022-09-20T06:41:48;9.15;;;2.78;;
55417;SDS011;41287;47.554;7.844;2022-09-20T06:44:13;6.25;;;2.13;;
55417;SDS011;41287;47.554;7.844;2022-09-20T06:46:39;5.68;;;1.77;;
55417;SDS011;41287;47.554;7.844;2022-09-20T06:49:05;4.43;;;2.03;;
55417;SDS011;41287;47.554;7.844;2022-09-20T06:51:33;5.07;;;1.92;;
55417;SDS011;41287;47.554;7.844;2022-09-20T06:54:02;6.22;;;2.58;;
55417;SDS011;41287;47.554;7.844;2022-09-20T06:56:30;6.00;;;2.40;;
55417;SDS011;41287;47.554;7.844;2022-09-20T06:58:58;4.63;;;2.20;;
55417;SDS011;41287;47.554;7.844;2022-09-20T07:01:23;6.75;;;2.22;;
55417;SDS011;41287;47.554;7.844;2022-09-20T07:03:48;5.82;;;1.98;;
55417;SDS011;41287;47.554;7.844;2022-09-20T07:06:14;6.65;;;2.00;;
55417;SDS011;41287;47.554;7.844;2022-09-20T07:08:43;7.72;;;1.95;;
55417;SDS011;41287;47.554;7.844;2022-09-20T07:11:13;8.13;;;2.08;;
55417;SDS011;41287;47.554;7.844;2022-09-20T07:13:43;4.13;;;2.10;;
55417;SDS011;41287;47.554;7.844;2022-09-20T07:16:13;5.78;;;2.03;;
55417;SDS011;41287;47.554;7.844;2022-09-20T07:18:39;6.82;;;1.67;;
55417;SDS011;41287;47.554;7.844;2022-09-20T07:21:13;6.78;;;2.05;;
55417;SDS011;41287;47.554;7.844;2022-09-20T07:23:42;3.60;;;1.73;;
55417;SDS011;41287;47.554;7.844;2022-09-20T07:26:17;4.55;;;1.73;;
55417;SDS011;41287;47.554;7.844;2022-09-20T07:28:44;8.60;;;1.87;;
55417;SDS011;41287;47.554;7.844;2022-09-20T07:31:10;4.03;;;1.95;;
55417;SDS011;41287;47.554;7.844;2022-09-20T07:33:35;6.15;;;2.03;;
55417;SDS011;41287;47.554;7.844;2022-09-20T07:36:01;6.93;;;1.58;;
55417;SDS011;41287;47.554;7.844;2022-09-20T07:38:29;7.13;;;2.20;;
55417;SDS011;41287;47.554;7.844;2022-09-20T07:40:58;7.57;;;2.13;;
55417;SDS011;41287;47.554;7.844;2022-09-20T07:43:26;5.25;;;1.65;;
55417;SDS011;41287;47.554;7.844;2022-09-20T07:45:52;5.50;;;1.98;;
55417;SDS011;41287;47.554;7.844;2022-09-20T07:48:29;4.05;;;1.45;;
55417;SDS011;41287;47.554;7.844;2022-09-20T07:50:59;4.22;;;2.00;;
55417;SDS011;41287;47.554;7.844;2022-09-20T07:53:27;6.38;;;1.90;;
55417;SDS011;41287;47.554;7.844;2022-09-20T07:58:26;7.05;;;1.92;;
55417;SDS011;41287;47.554;7.844;2022-09-20T08:00:56;3.78;;;1.95;;
55417;SDS011;41287;47.554;7.844;2022-09-20T08:03:23;6.75;;;2.05;;
55417;SDS011;41287;47.554;7.844;2022-09-20T08:05:49;5.90;;;2.33;;
55417;SDS011;41287;47.554;7.844;2022-09-20T08:08:16;6.95;;;2.00;;
55417;SDS011;41287;47.554;7.844;2022-09-20T08:10:43;4.40;;;2.38;;
55417;SDS011;41287;47.554;7.844;2022-09-20T08:13:10;5.03;;;2.53;;
55417;SDS011;41287;47.554;7.844;2022-09-20T08:15:36;4.55;;;2.13;;
55417;SDS011;41287;47.554;7.844;2022-09-20T08:18:01;5.88;;;1.90;;
55417;SDS011;41287;47.554;7.844;2022-09-20T08:20:27;5.80;;;2.03;;
55417;SDS011;41287;47.554;7.844;2022-09-20T08:22:52;7.22;;;2.33;;
55417;SDS011;41287;47.554;7.844;2022-09-20T08:25:19;7.22;;;2.28;;
55417;SDS011;41287;47.554;7.844;2022-09-20T08:27:50;6.80;;;2.08;;
55417;SDS011;41287;47.554;7.844;2022-09-20T08:30:16;6.55;;;2.47;;
55417;SDS011;41287;47.554;7.844;2022-09-20T08:32:42;6.45;;;2.00;;
55417;SDS011;41287;47.554;7.844;2022-09-20T08:35:08;4.82;;;1.83;;
55417;SDS011;41287;47.554;7.844;2022-09-20T08:37:33;5.93;;;1.75;;
55417;SDS011;41287;47.554;7.844;2022-09-20T08:39:59;8.18;;;2.10;;
55417;SDS011;41287;47.554;7.844;2022-09-20T08:42:29;6.10;;;1.77;;
55417;SDS011;41287;47.554;7.844;2022-09-20T08:44:58;7.47;;;1.92;;
55417;SDS011;41287;47.554;7.844;2022-09-20T08:47:27;5.25;;;1.63;;
55417;SDS011;41287;47.554;7.844;2022-09-20T08:49:55;5.88;;;1.77;;
55417;SDS011;41287;47.554;7.844;2022-09-20T08:52:29;7.13;;;1.60;;
55417;SDS011;41287;47.554;7.844;2022-09-20T08:54:59;9.77;;;1.83;;
55417;SDS011;41287;47.554;7.844;2022-09-20T08:57:29;7.95;;;2.38;;
55417;SDS011;41287;47.554;7.844;2022-09-20T09:00:00;7.30;;;2.33;;
55417;SDS011;41287;47.554;7.844;2022-09-20T09:02:29;5.50;;;1.88;;
55417;SDS011;41287;47.554;7.844;2022-09-20T09:04:56;6.15;;;1.95;;
55417;SDS011;41287;47.554;7.844;2022-09-20T09:07:22;6.40;;;2.35;;
55417;SDS011;41287;47.554;7.844;2022-09-20T09:09:50;5.18;;;1.45;;
55417;SDS011;41287;47.554;7.844;2022-09-20T09:12:20;8.05;;;1.52;;
55417;SDS011;41287;47.554;7.844;2022-09-20T09:14:49;5.53;;;2.00;;
55417;SDS011;41287;47.554;7.844;2022-09-20T09:17:20;4.47;;;1.52;;
55417;SDS011;41287;47.554;7.844;2022-09-20T09:22:39;4.88;;;1.70;;
55417;SDS011;41287;47.554;7.844;2022-09-20T09:25:19;4.05;;;1.40;;
55417;SDS011;41287;47.554;7.844;2022-09-20T09:30:37;5.88;;;1.90;;
55417;SDS011;41287;47.554;7.844;2022-09-20T09:35:53;4.65;;;1.30;;
55417;SDS011;41287;47.554;7.844;2022-09-20T09:38:29;2.88;;;1.15;;
55417;SDS011;41287;47.554;7.844;2022-09-20T09:43:24;4.07;;;1.38;;
55417;SDS011;41287;47.554;7.844;2022-09-20T09:45:53;3.72;;;1.40;;
55417;SDS011;41287;47.554;7.844;2022-09-20T09:48:22;5.75;;;1.40;;
55417;SDS011;41287;47.554;7.844;2022-09-20T09:50:47;3.67;;;1.20;;
55417;SDS011;41287;47.554;7.844;2022-09-20T09:53:14;5.03;;;1.75;;
55417;SDS011;41287;47.554;7.844;2022-09-20T09:58:44;5.88;;;1.33;;
55417;SDS011;41287;47.554;7.844;2022-09-20T10:04:34;6.90;;;1.60;;
55417;SDS011;41287;47.554;7.844;2022-09-20T10:09:51;3.15;;;1.15;;
55417;SDS011;41287;47.554;7.844;2022-09-20T10:12:29;7.97;;;1.52;;
55417;SDS011;41287;47.554;7.844;2022-09-20T10:15:19;4.90;;;1.65;;
55417;SDS011;41287;47.554;7.844;2022-09-20T10:18:07;6.40;;;1.50;;
55417;SDS011;41287;47.554;7.844;2022-09-20T10:21:02;4.75;;;1.33;;
55417;SDS011;41287;47.554;7.844;2022-09-20T10:29:44;8.05;;;2.00;;
55417;SDS011;41287;47.554;7.844;2022-09-20T10:32:30;8.00;;;2.13;;
55417;SDS011;41287;47.554;7.844;2022-09-20T10:35:06;6.07;;;1.77;;
55417;SDS011;41287;47.554;7.844;2022-09-20T10:38:10;6.65;;;1.60;;
55417;SDS011;41287;47.554;7.844;2022-09-20T10:47:08;7.10;;;1.67;;
55417;SDS011;41287;47.554;7.844;2022-09-20T11:00:20;6.43;;;1.60;;
55417;SDS011;41287;47.554;7.844;2022-09-20T11:03:06;4.00;;;1.50;;
55417;SDS011;41287;47.554;7.844;2022-09-20T11:08:48;7.82;;;1.55;;
55417;SDS011;41287;47.554;7.844;2022-09-20T11:11:20;6.25;;;1.60;;
55417;SDS011;41287;47.554;7.844;2022-09-20T11:13:56;7.00;;;1.33;;
55417;SDS011;41287;47.554;7.844;2022-09-20T11:16:50;5.25;;;1.40;;
55417;SDS011;41287;47.554;7.844;2022-09-20T11:19:33;4.75;;;1.27;;
55417;SDS011;41287;47.554;7.844;2022-09-20T11:22:15;5.45;;;1.67;;
55417;SDS011;41287;47.554;7.844;2022-09-20T11:24:57;6.13;;;1.60;;
55417;SDS011;41287;47.554;7.844;2022-09-20T11:28:08;6.10;;;1.88;;
55417;SDS011;41287;47.554;7.844;2022-09-20T11:30:34;3.47;;;1.17;;
55417;SDS011;41287;47.554;7.844;2022-09-20T11:33:06;4.60;;;1.80;;
55417;SDS011;41287;47.554;7.844;2022-09-20T11:35:47;5.32;;;1.45;;
55417;SDS011;41287;47.554;7.844;2022-09-20T11:38:25;5.70;;;1.27;;
55417;SDS011;41287;47.554;7.844;2022-09-20T11:43:32;5.20;;;1.30;;
55417;SDS011;41287;47.554;7.844;2022-09-20T11:46:03;5.22;;;1.38;;
55417;SDS011;41287;47.554;7.844;2022-09-20T11:48:33;5.03;;;1.30;;
55417;SDS011;41287;47.554;7.844;2022-09-20T11:56:40;6.60;;;1.33;;
55417;SDS011;41287;47.554;7.844;2022-09-20T11:59:26;2.15;;;1.00;;
55417;SDS011;41287;47.554;7.844;2022-09-20T12:01:56;3.15;;;1.15;;
55417;SDS011;41287;47.554;7.844;2022-09-20T12:04:26;3.67;;;1.38;;
55417;SDS011;41287;47.554;7.844;2022-09-20T12:07:02;3.90;;;1.20;;
55417;SDS011;41287;47.554;7.844;2022-09-20T12:09:32;5.50;;;1.00;;
55417;SDS011;41287;47.554;7.844;2022-09-20T12:12:46;3.97;;;1.27;;
55417;SDS011;41287;47.554;7.844;2022-09-20T12:23:41;3.92;;;1.02;;
55417;SDS011;41287;47.554;7.844;2022-09-20T12:26:00;3.58;;;1.20;;
55417;SDS011;41287;47.554;7.844;2022-09-20T12:28:37;4.13;;;1.23;;
55417;SDS011;41287;47.554;7.844;2022-09-20T12:36:24;8.05;;;1.35;;
55417;SDS011;41287;47.554;7.844;2022-09-20T12:41:49;3.42;;;0.90;;
55417;SDS011;41287;47.554;7.844;2022-09-20T12:52:36;5.20;;;1.15;;
55417;SDS011;41287;47.554;7.844;2022-09-20T12:55:48;5.07;;;1.40;;
55417;SDS011;41287;47.554;7.844;2022-09-20T12:58:36;4.55;;;1.48;;
55417;SDS011;41287;47.554;7.844;2022-09-20T13:03:49;6.67;;;1.90;;
55417;SDS011;41287;47.554;7.844;2022-09-20T13:11:41;10.43;;;2.00;;
55417;SDS011;41287;47.554;7.844;2022-09-20T13:14:11;4.97;;;1.90;;
55417;SDS011;41287;47.554;7.844;2022-09-20T13:16:51;5.97;;;1.92;;
55417;SDS011;41287;47.554;7.844;2022-09-20T13:22:00;8.52;;;2.72;;
55417;SDS011;41287;47.554;7.844;2022-09-20T13:24:35;7.35;;;2.50;;
55417;SDS011;41287;47.554;7.844;2022-09-20T13:27:05;5.43;;;2.47;;
55417;SDS011;41287;47.554;7.844;2022-09-20T13:29:39;8.60;;;2.28;;
55417;SDS011;41287;47.554;7.844;2022-09-20T13:32:16;6.68;;;2.10;;
55417;SDS011;41287;47.554;7.844;2022-09-20T13:37:34;4.90;;;2.10;;
55417;SDS011;41287;47.554;7.844;2022-09-20T13:40:01;7.30;;;2.53;;
55417;SDS011;41287;47.554;7.844;2022-09-20T13:42:27;5.22;;;1.70;;
55417;SDS011;41287;47.554;7.844;2022-09-20T13:44:54;5.18;;;1.88;;
55417;SDS011;41287;47.554;7.844;2022-09-20T13:47:28;4.72;;;1.85;;
55417;SDS011;41287;47.554;7.844;2022-09-20T13:49:58;4.65;;;1.75;;
55417;SDS011;41287;47.554;7.844;2022-09-20T13:52:26;2.42;;;1.40;;
55417;SDS011;41287;47.554;7.844;2022-09-20T13:54:54;6.13;;;1.70;;
55417;SDS011;41287;47.554;7.844;2022-09-20T13:57:28;3.20;;;1.38;;
55417;SDS011;41287;47.554;7.844;2022-09-20T13:59:54;5.32;;;1.45;;
55417;SDS011;41287;47.554;7.844;2022-09-20T14:02:25;3.47;;;1.30;;
55417;SDS011;41287;47.554;7.844;2022-09-20T14:04:56;5.05;;;1.60;;
55417;SDS011;41287;47.554;7.844;2022-09-20T14:07:24;5.50;;;1.33;;
55417;SDS011;41287;47.554;7.844;2022-09-20T14:09:52;2.85;;;1.30;;
55417;SDS011;41287;47.554;7.844;2022-09-20T14:12:18;3.15;;;1.42;;
55417;SDS011;41287;47.554;7.844;2022-09-20T14:14:45;4.25;;;1.42;;
55417;SDS011;41287;47.554;7.844;2022-09-20T14:17:12;3.65;;;1.30;;
55417;SDS011;41287;47.554;7.844;2022-09-20T14:19:42;3.60;;;1.30;;
55417;SDS011;41287;47.554;7.844;2022-09-20T14:22:21;2.53;;;1.38;;
55417;SDS011;41287;47.554;7.844;2022-09-20T14:27:27;4.05;;;1.50;;
55417;SDS011;41287;47.554;7.844;2022-09-20T14:29:55;3.80;;;1.08;;
55417;SDS011;41287;47.554;7.844;2022-09-20T14:34:59;3.22;;;1.27;;
55417;SDS011;41287;47.554;7.844;2022-09-20T14:40:19;2.85;;;1.10;;
55417;SDS011;41287;47.554;7.844;2022-09-20T14:42:48;2.67;;;1.02;;
55417;SDS011;41287;47.554;7.844;2022-09-20T14:47:57;3.67;;;1.30;;
55417;SDS011;41287;47.554;7.844;2022-09-20T14:50:31;2.92;;;1.15;;
55417;SDS011;41287;47.554;7.844;2022-09-20T14:53:43;3.67;;;1.48;;
55417;SDS011;41287;47.554;7.844;2022-09-20T14:59:18;3.17;;;1.30;;
55417;SDS011;41287;47.554;7.844;2022-09-20T15:01:54;2.38;;;0.95;;
55417;SDS011;41287;47.554;7.844;2022-09-20T15:04:29;4.65;;;1.30;;
55417;SDS011;41287;47.554;7.844;2022-09-20T15:06:59;2.50;;;1.00;;
55417;SDS011;41287;47.554;7.844;2022-09-20T15:09:26;3.42;;;1.20;;
55417;SDS011;41287;47.554;7.844;2022-09-20T15:12:02;2.92;;;1.10;;
55417;SDS011;41287;47.554;7.844;2022-09-20T15:14:28;2.95;;;1.08;;
55417;SDS011;41287;47.554;7.844;2022-09-20T15:16:53;2.85;;;1.08;;
55417;SDS011;41287;47.554;7.844;2022-09-20T15:19:19;6.45;;;1.48;;
55417;SDS011;41287;47.554;7.844;2022-09-20T15:21:45;2.65;;;1.23;;
55417;SDS011;41287;47.554;7.844;2022-09-20T15:24:12;1.42;;;0.90;;
55417;SDS011;41287;47.554;7.844;2022-09-20T15:26:38;2.70;;;1.00;;
55417;SDS011;41287;47.554;7.844;2022-09-20T15:29:04;3.65;;;0.75;;
55417;SDS011;41287;47.554;7.844;2022-09-20T15:31:30;1.58;;;0.73;;
55417;SDS011;41287;47.554;7.844;2022-09-20T15:33:55;2.42;;;0.93;;
55417;SDS011;41287;47.554;7.844;2022-09-20T15:36:21;1.30;;;0.88;;
55417;SDS011;41287;47.554;7.844;2022-09-20T15:38:46;2.47;;;0.98;;
55417;SDS011;41287;47.554;7.844;2022-09-20T15:41:11;3.40;;;0.82;;
55417;SDS011;41287;47.554;7.844;2022-09-20T15:43:37;2.10;;;0.90;;
55417;SDS011;41287;47.554;7.844;2022-09-20T15:46:19;2.08;;;0.85;;
55417;SDS011;41287;47.554;7.844;2022-09-20T15:48:46;2.63;;;1.10;;
55417;SDS011;41287;47.554;7.844;2022-09-20T15:51:12;2.30;;;0.95;;
55417;SDS011;41287;47.554;7.844;2022-09-20T15:53:42;1.30;;;0.57;;
55417;SDS011;41287;47.554;7.844;2022-09-20T15:56:15;3.13;;;0.93;;
55417;SDS011;41287;47.554;7.844;2022-09-20T15:58:55;1.88;;;0.85;;
55417;SDS011;41287;47.554;7.844;2022-09-20T16:01:28;1.35;;;0.80;;
55417;SDS011;41287;47.554;7.844;2022-09-20T16:04:03;0.80;;;0.50;;
55417;SDS011;41287;47.554;7.844;2022-09-20T16:06:29;3.05;;;0.70;;
55417;SDS011;41287;47.554;7.844;2022-09-20T16:08:55;3.10;;;0.82;;
55417;SDS011;41287;47.554;7.844;2022-09-20T16:11:21;2.70;;;0.85;;
55417;SDS011;41287;47.554;7.844;2022-09-20T16:13:51;2.20;;;0.80;;
55417;SDS011;41287;47.554;7.844;2022-09-20T16:16:17;4.47;;;1.05;;
55417;SDS011;41287;47.554;7.844;2022-09-20T16:18:43;3.33;;;0.98;;
55417;SDS011;41287;47.554;7.844;2022-09-20T16:21:27;3.60;;;0.80;;
55417;SDS011;41287;47.554;7.844;2022-09-20T16:23:54;2.10;;;0.80;;
55417;SDS011;41287;47.554;7.844;2022-09-20T16:26:21;3.88;;;0.77;;
55417;SDS011;41287;47.554;7.844;2022-09-20T16:28:48;2.70;;;0.85;;
55417;SDS011;41287;47.554;7.844;2022-09-20T16:34:13;2.63;;;0.80;;
55417;SDS011;41287;47.554;7.844;2022-09-20T16:36:44;3.03;;;0.90;;
55417;SDS011;41287;47.554;7.844;2022-09-20T16:39:11;1.83;;;0.80;;
55417;SDS011;41287;47.554;7.844;2022-09-20T16:41:39;3.05;;;0.73;;
55417;SDS011;41287;47.554;7.844;2022-09-20T16:44:05;1.38;;;0.70;;
55417;SDS011;41287;47.554;7.844;2022-09-20T16:46:32;4.60;;;0.95;;
55417;SDS011;41287;47.554;7.844;2022-09-20T16:49:01;2.45;;;0.70;;
55417;SDS011;41287;47.554;7.844;2022-09-20T16:51:32;3.80;;;0.90;;
55417;SDS011;41287;47.554;7.844;2022-09-20T16:54:11;2.22;;;0.80;;
55417;SDS011;41287;47.554;7.844;2022-09-20T16:56:42;1.95;;;0.77;;
55417;SDS011;41287;47.554;7.844;2022-09-20T16:59:09;3.90;;;1.02;;
55417;SDS011;41287;47.554;7.844;2022-09-20T17:01:36;3.65;;;0.70;;
55417;SDS011;41287;47.554;7.844;2022-09-20T17:04:03;3.90;;;0.80;;
55417;SDS011;41287;47.554;7.844;2022-09-20T17:06:32;9.65;;;0.90;;
55417;SDS011;41287;47.554;7.844;2022-09-20T17:09:01;7.82;;;0.85;;
55417;SDS011;41287;47.554;7.844;2022-09-20T17:11:29;1.20;;;0.50;;
55417;SDS011;41287;47.554;7.844;2022-09-20T17:13:56;1.73;;;0.63;;
55417;SDS011;41287;47.554;7.844;2022-09-20T17:16:25;5.18;;;1.00;;
55417;SDS011;41287;47.554;7.844;2022-09-20T17:18:54;1.55;;;0.60;;
55417;SDS011;41287;47.554;7.844;2022-09-20T17:21:24;4.68;;;0.70;;
55417;SDS011;41287;47.554;7.844;2022-09-20T17:23:51;2.47;;;0.93;;
55417;SDS011;41287;47.554;7.844;2022-09-20T17:26:28;2.20;;;0.80;;
55417;SDS011;41287;47.554;7.844;2022-09-20T17:28:59;2.72;;;0.82;;
55417;SDS011;41287;47.554;7.844;2022-09-20T17:31:26;4.13;;;0.82;;
55417;SDS011;41287;47.554;7.844;2022-09-20T17:33:57;1.92;;;0.73;;
55417;SDS011;41287;47.554;7.844;2022-09-20T17:36:24;3.50;;;0.93;;
55417;SDS011;41287;47.554;7.844;2022-09-20T17:38:54;2.50;;;0.88;;
55417;SDS011;41287;47.554;7.844;2022-09-20T17:41:21;2.03;;;0.75;;
55417;SDS011;41287;47.554;7.844;2022-09-20T17:43:46;2.63;;;0.70;;
55417;SDS011;41287;47.554;7.844;2022-09-20T17:46:13;3.78;;;0.90;;
55417;SDS011;41287;47.554;7.844;2022-09-20T17:48:41;1.35;;;0.60;;
55417;SDS011;41287;47.554;7.844;2022-09-20T17:51:13;3.33;;;1.10;;
55417;SDS011;41287;47.554;7.844;2022-09-20T17:53:39;2.88;;;1.00;;
55417;SDS011;41287;47.554;7.844;2022-09-20T17:56:04;1.38;;;0.90;;
55417;SDS011;41287;47.554;7.844;2022-09-20T17:58:32;3.35;;;0.90;;
55417;SDS011;41287;47.554;7.844;2022-09-20T18:01:03;2.15;;;1.00;;
55417;SDS011;41287;47.554;7.844;2022-09-20T18:03:32;2.65;;;1.00;;
55417;SDS011;41287;47.554;7.844;2022-09-20T18:06:22;2.55;;;0.82;;
55417;SDS011;41287;47.554;7.844;2022-09-20T18:08:54;4.28;;;1.17;;
55417;SDS011;41287;47.554;7.844;2022-09-20T18:13:55;4.43;;;1.00;;
55417;SDS011;41287;47.554;7.844;2022-09-20T18:16:21;3.10;;;1.08;;
55417;SDS011;41287;47.554;7.844;2022-09-20T18:18:47;4.10;;;0.85;;
55417;SDS011;41287;47.554;7.844;2022-09-20T18:21:14;2.53;;;1.13;;
55417;SDS011;41287;47.554;7.844;2022-09-20T18:23:42;4.05;;;1.00;;
55417;SDS011;41287;47.554;7.844;2022-09-20T18:26:11;5.07;;;1.08;;
55417;SDS011;41287;47.554;7.844;2022-09-20T18:28:49;3.60;;;0.80;;
55417;SDS011;41287;47.554;7.844;2022-09-20T18:31:15;3.65;;;1.20;;
55417;SDS011;41287;47.554;7.844;2022-09-20T18:33:42;2.40;;;0.60;;
55417;SDS011;41287;47.554;7.844;2022-09-20T18:36:08;4.00;;;1.00;;
55417;SDS011;41287;47.554;7.844;2022-09-20T18:38:33;2.67;;;1.00;;
55417;SDS011;41287;47.554;7.844;2022-09-20T18:40:59;2.58;;;0.90;;
55417;SDS011;41287;47.554;7.844;2022-09-20T18:43:28;1.58;;;0.80;;
55417;SDS011;41287;47.554;7.844;2022-09-20T18:45:55;2.00;;;1.05;;
55417;SDS011;41287;47.554;7.844;2022-09-20T18:48:23;1.63;;;1.00;;
55417;SDS011;41287;47.554;7.844;2022-09-20T18:50:59;3.63;;;0.93;;
55417;SDS011;41287;47.554;7.844;2022-09-20T18:53:44;3.30;;;1.00;;
55417;SDS011;41287;47.554;7.844;2022-09-20T18:56:17;4.13;;;1.40;;
55417;SDS011;41287;47.554;7.844;2022-09-20T18:58:56;1.67;;;1.00;;
55417;SDS011;41287;47.554;7.844;2022-09-20T19:10:13;2.83;;;0.63;;
55417;SDS011;41287;47.554;7.844;2022-09-20T19:13:02;2.13;;;0.90;;
55417;SDS011;41287;47.554;7.844;2022-09-20T19:15:49;1.63;;;0.70;;
55417;SDS011;41287;47.554;7.844;2022-09-20T19:26:40;0.93;;;0.70;;
55417;SDS011;41287;47.554;7.844;2022-09-20T19:29:19;2.55;;;0.80;;
55417;SDS011;41287;47.554;7.844;2022-09-20T19:31:46;3.92;;;1.02;;
55417;SDS011;41287;47.554;7.844;2022-09-20T19:34:16;2.65;;;0.90;;
55417;SDS011;41287;47.554;7.844;2022-09-20T19:53:14;2.33;;;0.82;;
55417;SDS011;41287;47.554;7.844;2022-09-20T19:56:02;2.67;;;0.80;;
55417;SDS011;41287;47.554;7.844;2022-09-20T19:58:30;1.80;;;0.73;;
55417;SDS011;41287;47.554;7.844;2022-09-20T20:00:55;1.60;;;0.80;;
55417;SDS011;41287;47.554;7.844;2022-09-20T20:03:22;3.13;;;0.98;;
55417;SDS011;41287;47.554;7.844;2022-09-20T20:06:00;1.85;;;0.80;;
55417;SDS011;41287;47.554;7.844;2022-09-20T20:08:37;1.88;;;0.85;;
55417;SDS011;41287;47.554;7.844;2022-09-20T20:22:32;2.28;;;1.00;;
55417;SDS011;41287;47.554;7.844;2022-09-20T20:25:33;3.30;;;0.70;;
55417;SDS011;41287;47.554;7.844;2022-09-20T20:28:19;2.58;;;0.80;;
55417;SDS011;41287;47.554;7.844;2022-09-20T20:30:48;1.58;;;0.90;;
55417;SDS011;41287;47.554;7.844;2022-09-20T20:33:14;2.22;;;0.90;;
55417;SDS011;41287;47.554;7.844;2022-09-20T20:35:40;2.05;;;1.08;;
55417;SDS011;41287;47.554;7.844;2022-09-20T20:38:05;2.60;;;0.80;;
55417;SDS011;41287;47.554;7.844;2022-09-20T20:40:34;2.53;;;0.95;;
55417;SDS011;41287;47.554;7.844;2022-09-20T20:43:00;1.30;;;0.82;;
55417;SDS011;41287;47.554;7.844;2022-09-20T20:45:26;3.22;;;0.80;;
55417;SDS011;41287;47.554;7.844;2022-09-20T20:47:55;5.28;;;1.20;;
55417;SDS011;41287;47.554;7.844;2022-09-20T20:50:21;5.55;;;1.10;;
55417;SDS011;41287;47.554;7.844;2022-09-20T20:52:50;1.08;;;0.73;;
55417;SDS011;41287;47.554;7.844;2022-09-20T20:55:17;3.10;;;0.90;;
55417;SDS011;41287;47.554;7.844;2022-09-20T20:57:42;2.22;;;0.80;;
55417;SDS011;41287;47.554;7.844;2022-09-20T21:00:08;2.45;;;0.73;;
55417;SDS011;41287;47.554;7.844;2022-09-20T21:02:33;1.25;;;0.65;;
55417;SDS011;41287;47.554;7.844;2022-09-20T21:04:59;3.22;;;1.30;;
55417;SDS011;41287;47.554;7.844;2022-09-20T21:07:25;1.75;;;0.80;;
55417;SDS011;41287;47.554;7.844;2022-09-20T21:09:50;2.75;;;0.80;;